sensor_id;sensor_type;location;lat;lon;timestamp;P1;durP1;ratioP1;P2;durP2;ratioP2
66371;SDS011;53168;51.146;17.120;2024-02-14T00:00:47;59.04;;;57.37;;
66371;SDS011;53168;51.146;17.120;2024-02-14T00:03:39;57.45;;;56.17;;
66371;SDS011;53168;51.146;17.120;2024-02-14T00:06:14;55.99;;;54.80;;
66371;SDS011;53168;51.146;17.120;2024-02-14T00:08:48;57.66;;;55.80;;
66371;SDS011;53168;51.146;17.120;2024-02-14T00:11:23;54.24;;;52.68;;
66371;SDS011;53168;51.146;17.120;2024-02-14T00:13:59;56.53;;;54.69;;
66371;SDS011;53168;51.146;17.120;2024-02-14T00:16:34;54.46;;;52.87;;
66371;SDS011;53168;51.146;17.120;2024-02-14T00:19:10;54.10;;;52.90;;
66371;SDS011;53168;51.146;17.120;2024-02-14T00:21:45;52.57;;;51.40;;
66371;SDS011;53168;51.146;17.120;2024-02-14T00:24:20;54.82;;;53.13;;
66371;SDS011;53168;51.146;17.120;2024-02-14T00:26:56;53.46;;;52.18;;
66371;SDS011;53168;51.146;17.120;2024-02-14T00:29:32;53.06;;;51.09;;
66371;SDS011;53168;51.146;17.120;2024-02-14T00:32:08;50.64;;;49.75;;
66371;SDS011;53168;51.146;17.120;2024-02-14T00:34:43;53.04;;;51.70;;
66371;SDS011;53168;51.146;17.120;2024-02-14T00:37:21;54.27;;;52.66;;
66371;SDS011;53168;51.146;17.120;2024-02-14T00:39:55;52.86;;;51.41;;
66371;SDS011;53168;51.146;17.120;2024-02-14T00:42:30;51.72;;;50.45;;
66371;SDS011;53168;51.146;17.120;2024-02-14T00:45:06;54.96;;;53.11;;
66371;SDS011;53168;51.146;17.120;2024-02-14T00:47:42;55.76;;;53.80;;
66371;SDS011;53168;51.146;17.120;2024-02-14T00:50:17;55.09;;;53.60;;
66371;SDS011;53168;51.146;17.120;2024-02-14T00:52:52;53.13;;;52.21;;
66371;SDS011;53168;51.146;17.120;2024-02-14T00:55:26;53.57;;;52.25;;
66371;SDS011;53168;51.146;17.120;2024-02-14T00:58:01;53.79;;;52.62;;
66371;SDS011;53168;51.146;17.120;2024-02-14T01:00:36;54.95;;;53.75;;
66371;SDS011;53168;51.146;17.120;2024-02-14T01:03:11;54.27;;;52.91;;
66371;SDS011;53168;51.146;17.120;2024-02-14T01:05:46;52.95;;;51.37;;
66371;SDS011;53168;51.146;17.120;2024-02-14T01:08:22;53.76;;;52.39;;
66371;SDS011;53168;51.146;17.120;2024-02-14T01:10:57;57.76;;;56.11;;
66371;SDS011;53168;51.146;17.120;2024-02-14T01:13:32;57.56;;;56.00;;
66371;SDS011;53168;51.146;17.120;2024-02-14T01:16:07;56.63;;;55.16;;
66371;SDS011;53168;51.146;17.120;2024-02-14T01:18:43;57.77;;;56.20;;
66371;SDS011;53168;51.146;17.120;2024-02-14T01:21:18;61.53;;;59.92;;
66371;SDS011;53168;51.146;17.120;2024-02-14T01:23:52;64.22;;;62.90;;
66371;SDS011;53168;51.146;17.120;2024-02-14T01:26:27;65.37;;;63.18;;
66371;SDS011;53168;51.146;17.120;2024-02-14T01:29:01;65.19;;;63.40;;
66371;SDS011;53168;51.146;17.120;2024-02-14T01:31:36;68.82;;;67.17;;
66371;SDS011;53168;51.146;17.120;2024-02-14T01:34:11;67.83;;;66.59;;
66371;SDS011;53168;51.146;17.120;2024-02-14T01:36:47;69.80;;;67.84;;
66371;SDS011;53168;51.146;17.120;2024-02-14T01:39:23;68.60;;;66.04;;
66371;SDS011;53168;51.146;17.120;2024-02-14T01:41:58;68.35;;;67.03;;
66371;SDS011;53168;51.146;17.120;2024-02-14T01:44:37;72.75;;;70.74;;
66371;SDS011;53168;51.146;17.120;2024-02-14T01:47:13;72.77;;;70.69;;
66371;SDS011;53168;51.146;17.120;2024-02-14T01:49:48;69.56;;;68.11;;
66371;SDS011;53168;51.146;17.120;2024-02-14T01:52:23;69.76;;;68.25;;
66371;SDS011;53168;51.146;17.120;2024-02-14T01:54:59;70.45;;;68.89;;
66371;SDS011;53168;51.146;17.120;2024-02-14T01:57:37;72.21;;;70.51;;
66371;SDS011;53168;51.146;17.120;2024-02-14T02:00:13;68.49;;;66.97;;
66371;SDS011;53168;51.146;17.120;2024-02-14T02:02:50;68.98;;;67.56;;
66371;SDS011;53168;51.146;17.120;2024-02-14T02:05:55;72.91;;;69.45;;
66371;SDS011;53168;51.146;17.120;2024-02-14T02:08:31;70.98;;;69.21;;
66371;SDS011;53168;51.146;17.120;2024-02-14T02:11:09;70.49;;;69.01;;
66371;SDS011;53168;51.146;17.120;2024-02-14T02:13:43;68.08;;;65.91;;
66371;SDS011;53168;51.146;17.120;2024-02-14T02:16:18;69.67;;;68.05;;
66371;SDS011;53168;51.146;17.120;2024-02-14T02:18:53;71.17;;;68.89;;
66371;SDS011;53168;51.146;17.120;2024-02-14T02:21:28;69.37;;;67.68;;
66371;SDS011;53168;51.146;17.120;2024-02-14T02:24:07;68.59;;;66.85;;
66371;SDS011;53168;51.146;17.120;2024-02-14T02:26:42;69.40;;;68.18;;
66371;SDS011;53168;51.146;17.120;2024-02-14T02:29:17;70.52;;;68.48;;
66371;SDS011;53168;51.146;17.120;2024-02-14T02:31:52;68.69;;;66.78;;
66371;SDS011;53168;51.146;17.120;2024-02-14T02:34:26;66.22;;;65.01;;
66371;SDS011;53168;51.146;17.120;2024-02-14T02:37:04;66.96;;;65.14;;
66371;SDS011;53168;51.146;17.120;2024-02-14T02:39:40;67.74;;;65.74;;
66371;SDS011;53168;51.146;17.120;2024-02-14T02:42:15;70.87;;;68.87;;
66371;SDS011;53168;51.146;17.120;2024-02-14T02:44:50;70.58;;;68.68;;
66371;SDS011;53168;51.146;17.120;2024-02-14T02:47:25;70.37;;;68.68;;
66371;SDS011;53168;51.146;17.120;2024-02-14T02:50:00;70.87;;;69.33;;
66371;SDS011;53168;51.146;17.120;2024-02-14T02:52:37;69.21;;;67.81;;
66371;SDS011;53168;51.146;17.120;2024-02-14T02:55:12;72.84;;;71.00;;
66371;SDS011;53168;51.146;17.120;2024-02-14T02:57:48;73.55;;;71.82;;
66371;SDS011;53168;51.146;17.120;2024-02-14T03:00:23;73.47;;;71.78;;
66371;SDS011;53168;51.146;17.120;2024-02-14T03:02:57;72.95;;;71.28;;
66371;SDS011;53168;51.146;17.120;2024-02-14T03:05:34;71.83;;;69.91;;
66371;SDS011;53168;51.146;17.120;2024-02-14T03:08:09;73.69;;;71.64;;
66371;SDS011;53168;51.146;17.120;2024-02-14T03:10:45;72.42;;;70.87;;
66371;SDS011;53168;51.146;17.120;2024-02-14T03:13:20;73.98;;;71.92;;
66371;SDS011;53168;51.146;17.120;2024-02-14T03:15:56;70.16;;;68.44;;
66371;SDS011;53168;51.146;17.120;2024-02-14T03:18:31;70.68;;;69.38;;
66371;SDS011;53168;51.146;17.120;2024-02-14T03:21:08;71.55;;;69.96;;
66371;SDS011;53168;51.146;17.120;2024-02-14T03:23:42;71.18;;;70.11;;
66371;SDS011;53168;51.146;17.120;2024-02-14T03:26:17;71.11;;;69.27;;
66371;SDS011;53168;51.146;17.120;2024-02-14T03:28:52;70.89;;;69.17;;
66371;SDS011;53168;51.146;17.120;2024-02-14T03:31:27;73.05;;;70.97;;
66371;SDS011;53168;51.146;17.120;2024-02-14T03:34:02;70.93;;;69.37;;
66371;SDS011;53168;51.146;17.120;2024-02-14T03:36:37;70.12;;;68.33;;
66371;SDS011;53168;51.146;17.120;2024-02-14T03:39:12;70.08;;;68.28;;
66371;SDS011;53168;51.146;17.120;2024-02-14T03:41:47;69.86;;;68.09;;
66371;SDS011;53168;51.146;17.120;2024-02-14T03:44:23;71.00;;;69.28;;
66371;SDS011;53168;51.146;17.120;2024-02-14T03:46:57;70.81;;;69.50;;
66371;SDS011;53168;51.146;17.120;2024-02-14T03:49:32;70.08;;;68.08;;
66371;SDS011;53168;51.146;17.120;2024-02-14T03:52:07;73.83;;;71.51;;
66371;SDS011;53168;51.146;17.120;2024-02-14T03:54:42;72.64;;;70.92;;
66371;SDS011;53168;51.146;17.120;2024-02-14T03:57:16;73.14;;;71.13;;
66371;SDS011;53168;51.146;17.120;2024-02-14T03:59:51;75.22;;;72.73;;
66371;SDS011;53168;51.146;17.120;2024-02-14T04:02:28;71.68;;;69.17;;
66371;SDS011;53168;51.146;17.120;2024-02-14T04:05:08;70.42;;;68.40;;
66371;SDS011;53168;51.146;17.120;2024-02-14T04:07:43;68.72;;;66.72;;
66371;SDS011;53168;51.146;17.120;2024-02-14T04:10:22;69.31;;;67.80;;
66371;SDS011;53168;51.146;17.120;2024-02-14T04:12:56;70.42;;;68.24;;
66371;SDS011;53168;51.146;17.120;2024-02-14T04:15:31;67.80;;;65.94;;
66371;SDS011;53168;51.146;17.120;2024-02-14T04:18:06;65.86;;;64.16;;
66371;SDS011;53168;51.146;17.120;2024-02-14T04:20:41;62.44;;;60.77;;
66371;SDS011;53168;51.146;17.120;2024-02-14T04:23:16;61.24;;;59.74;;
66371;SDS011;53168;51.146;17.120;2024-02-14T04:25:52;61.22;;;59.61;;
66371;SDS011;53168;51.146;17.120;2024-02-14T04:28:29;62.05;;;60.67;;
66371;SDS011;53168;51.146;17.120;2024-02-14T04:31:04;61.78;;;60.38;;
66371;SDS011;53168;51.146;17.120;2024-02-14T04:33:41;60.52;;;58.84;;
66371;SDS011;53168;51.146;17.120;2024-02-14T04:36:20;62.08;;;59.80;;
66371;SDS011;53168;51.146;17.120;2024-02-14T04:38:59;60.55;;;58.47;;
66371;SDS011;53168;51.146;17.120;2024-02-14T04:41:40;58.67;;;56.97;;
66371;SDS011;53168;51.146;17.120;2024-02-14T04:44:26;55.50;;;54.08;;
66371;SDS011;53168;51.146;17.120;2024-02-14T04:47:01;55.71;;;54.14;;
66371;SDS011;53168;51.146;17.120;2024-02-14T04:49:36;58.82;;;57.13;;
66371;SDS011;53168;51.146;17.120;2024-02-14T04:52:10;57.27;;;55.71;;
66371;SDS011;53168;51.146;17.120;2024-02-14T04:54:46;55.98;;;54.47;;
66371;SDS011;53168;51.146;17.120;2024-02-14T04:57:20;57.67;;;56.11;;
66371;SDS011;53168;51.146;17.120;2024-02-14T04:59:55;58.62;;;56.79;;
66371;SDS011;53168;51.146;17.120;2024-02-14T05:02:30;57.43;;;55.94;;
66371;SDS011;53168;51.146;17.120;2024-02-14T05:05:06;54.46;;;53.13;;
66371;SDS011;53168;51.146;17.120;2024-02-14T05:07:41;54.89;;;53.53;;
66371;SDS011;53168;51.146;17.120;2024-02-14T05:10:16;54.96;;;53.74;;
66371;SDS011;53168;51.146;17.120;2024-02-14T05:12:51;55.65;;;53.74;;
66371;SDS011;53168;51.146;17.120;2024-02-14T05:15:25;52.81;;;50.99;;
66371;SDS011;53168;51.146;17.120;2024-02-14T05:18:00;51.07;;;50.12;;
66371;SDS011;53168;51.146;17.120;2024-02-14T05:20:37;53.47;;;52.22;;
66371;SDS011;53168;51.146;17.120;2024-02-14T05:23:11;53.58;;;52.34;;
66371;SDS011;53168;51.146;17.120;2024-02-14T05:25:47;51.98;;;50.25;;
66371;SDS011;53168;51.146;17.120;2024-02-14T05:28:22;51.04;;;49.76;;
66371;SDS011;53168;51.146;17.120;2024-02-14T05:30:58;47.64;;;46.82;;
66371;SDS011;53168;51.146;17.120;2024-02-14T05:33:34;48.88;;;47.44;;
66371;SDS011;53168;51.146;17.120;2024-02-14T05:36:09;48.25;;;46.98;;
66371;SDS011;53168;51.146;17.120;2024-02-14T05:38:44;47.33;;;46.58;;
66371;SDS011;53168;51.146;17.120;2024-02-14T05:41:19;49.30;;;47.91;;
66371;SDS011;53168;51.146;17.120;2024-02-14T05:43:55;50.60;;;48.90;;
66371;SDS011;53168;51.146;17.120;2024-02-14T05:46:29;49.21;;;47.80;;
66371;SDS011;53168;51.146;17.120;2024-02-14T05:49:04;46.89;;;45.75;;
66371;SDS011;53168;51.146;17.120;2024-02-14T05:51:39;46.87;;;45.38;;
66371;SDS011;53168;51.146;17.120;2024-02-14T05:54:14;47.15;;;45.70;;
66371;SDS011;53168;51.146;17.120;2024-02-14T05:56:49;46.66;;;45.24;;
66371;SDS011;53168;51.146;17.120;2024-02-14T05:59:23;45.46;;;44.53;;
66371;SDS011;53168;51.146;17.120;2024-02-14T06:01:58;46.36;;;45.09;;
66371;SDS011;53168;51.146;17.120;2024-02-14T06:04:35;48.19;;;46.73;;
66371;SDS011;53168;51.146;17.120;2024-02-14T06:07:12;48.56;;;47.41;;
66371;SDS011;53168;51.146;17.120;2024-02-14T06:09:47;47.61;;;46.57;;
66371;SDS011;53168;51.146;17.120;2024-02-14T06:12:22;47.41;;;46.25;;
66371;SDS011;53168;51.146;17.120;2024-02-14T06:14:56;47.95;;;46.53;;
66371;SDS011;53168;51.146;17.120;2024-02-14T06:17:31;48.35;;;47.43;;
66371;SDS011;53168;51.146;17.120;2024-02-14T06:20:07;47.95;;;46.48;;
66371;SDS011;53168;51.146;17.120;2024-02-14T06:22:44;47.51;;;46.28;;
66371;SDS011;53168;51.146;17.120;2024-02-14T06:25:33;46.66;;;45.46;;
66371;SDS011;53168;51.146;17.120;2024-02-14T06:28:08;44.56;;;43.90;;
66371;SDS011;53168;51.146;17.120;2024-02-14T06:30:42;46.52;;;45.57;;
66371;SDS011;53168;51.146;17.120;2024-02-14T06:33:17;46.34;;;45.35;;
66371;SDS011;53168;51.146;17.120;2024-02-14T06:35:52;45.31;;;44.41;;
66371;SDS011;53168;51.146;17.120;2024-02-14T06:38:27;45.16;;;44.41;;
66371;SDS011;53168;51.146;17.120;2024-02-14T06:41:02;45.27;;;44.50;;
66371;SDS011;53168;51.146;17.120;2024-02-14T06:43:38;46.10;;;45.27;;
66371;SDS011;53168;51.146;17.120;2024-02-14T06:46:12;46.09;;;45.23;;
66371;SDS011;53168;51.146;17.120;2024-02-14T06:48:47;47.91;;;47.11;;
66371;SDS011;53168;51.146;17.120;2024-02-14T06:51:22;47.60;;;46.41;;
66371;SDS011;53168;51.146;17.120;2024-02-14T06:53:57;49.76;;;48.69;;
66371;SDS011;53168;51.146;17.120;2024-02-14T06:56:35;49.38;;;48.31;;
66371;SDS011;53168;51.146;17.120;2024-02-14T06:59:10;49.74;;;48.76;;
66371;SDS011;53168;51.146;17.120;2024-02-14T07:01:45;49.92;;;48.71;;
66371;SDS011;53168;51.146;17.120;2024-02-14T07:04:19;50.22;;;49.07;;
66371;SDS011;53168;51.146;17.120;2024-02-14T07:06:56;50.50;;;49.55;;
66371;SDS011;53168;51.146;17.120;2024-02-14T07:09:31;49.47;;;48.23;;
66371;SDS011;53168;51.146;17.120;2024-02-14T07:12:08;49.54;;;48.27;;
66371;SDS011;53168;51.146;17.120;2024-02-14T07:14:43;50.30;;;48.84;;
66371;SDS011;53168;51.146;17.120;2024-02-14T07:17:23;52.28;;;50.87;;
66371;SDS011;53168;51.146;17.120;2024-02-14T07:20:01;50.57;;;49.25;;
66371;SDS011;53168;51.146;17.120;2024-02-14T07:22:55;46.64;;;45.47;;
66371;SDS011;53168;51.146;17.120;2024-02-14T07:25:36;45.45;;;44.30;;
66371;SDS011;53168;51.146;17.120;2024-02-14T07:28:24;47.84;;;46.77;;
66371;SDS011;53168;51.146;17.120;2024-02-14T07:31:22;47.71;;;46.53;;
66371;SDS011;53168;51.146;17.120;2024-02-14T07:34:03;42.65;;;41.68;;
66371;SDS011;53168;51.146;17.120;2024-02-14T07:36:38;43.89;;;43.44;;
66371;SDS011;53168;51.146;17.120;2024-02-14T07:39:15;41.91;;;41.12;;
66371;SDS011;53168;51.146;17.120;2024-02-14T07:41:50;40.51;;;39.49;;
66371;SDS011;53168;51.146;17.120;2024-02-14T07:44:26;37.73;;;36.85;;
66371;SDS011;53168;51.146;17.120;2024-02-14T07:47:01;36.24;;;35.30;;
66371;SDS011;53168;51.146;17.120;2024-02-14T07:52:53;30.99;;;30.34;;
66371;SDS011;53168;51.146;17.120;2024-02-14T07:55:29;41.71;;;40.78;;
66371;SDS011;53168;51.146;17.120;2024-02-14T07:58:06;42.84;;;41.67;;
66371;SDS011;53168;51.146;17.120;2024-02-14T08:00:43;46.62;;;44.97;;
66371;SDS011;53168;51.146;17.120;2024-02-14T08:03:18;46.47;;;45.09;;
66371;SDS011;53168;51.146;17.120;2024-02-14T08:05:54;43.08;;;42.16;;
66371;SDS011;53168;51.146;17.120;2024-02-14T08:08:31;43.70;;;42.97;;
66371;SDS011;53168;51.146;17.120;2024-02-14T08:11:09;42.77;;;41.87;;
66371;SDS011;53168;51.146;17.120;2024-02-14T08:13:44;44.75;;;43.76;;
66371;SDS011;53168;51.146;17.120;2024-02-14T08:16:22;43.10;;;42.18;;
66371;SDS011;53168;51.146;17.120;2024-02-14T08:19:18;41.45;;;40.49;;
66371;SDS011;53168;51.146;17.120;2024-02-14T08:21:54;41.04;;;40.50;;
66371;SDS011;53168;51.146;17.120;2024-02-14T08:24:30;43.12;;;42.25;;
66371;SDS011;53168;51.146;17.120;2024-02-14T08:27:06;39.32;;;38.49;;
66371;SDS011;53168;51.146;17.120;2024-02-14T08:29:47;40.03;;;39.15;;
66371;SDS011;53168;51.146;17.120;2024-02-14T08:32:22;38.15;;;37.46;;
66371;SDS011;53168;51.146;17.120;2024-02-14T08:34:57;38.28;;;36.82;;
66371;SDS011;53168;51.146;17.120;2024-02-14T08:37:32;34.42;;;33.62;;
66371;SDS011;53168;51.146;17.120;2024-02-14T08:40:11;35.40;;;34.54;;
66371;SDS011;53168;51.146;17.120;2024-02-14T08:42:48;33.86;;;32.99;;
66371;SDS011;53168;51.146;17.120;2024-02-14T08:45:23;33.07;;;32.31;;
66371;SDS011;53168;51.146;17.120;2024-02-14T08:47:59;30.11;;;29.27;;
66371;SDS011;53168;51.146;17.120;2024-02-14T08:50:35;30.00;;;29.38;;
66371;SDS011;53168;51.146;17.120;2024-02-14T08:53:13;30.31;;;29.60;;
66371;SDS011;53168;51.146;17.120;2024-02-14T08:55:50;31.43;;;30.89;;
66371;SDS011;53168;51.146;17.120;2024-02-14T08:58:25;31.85;;;31.08;;
66371;SDS011;53168;51.146;17.120;2024-02-14T09:01:01;28.80;;;28.07;;
66371;SDS011;53168;51.146;17.120;2024-02-14T09:03:46;27.99;;;27.47;;
66371;SDS011;53168;51.146;17.120;2024-02-14T09:06:21;24.56;;;24.02;;
66371;SDS011;53168;51.146;17.120;2024-02-14T09:09:00;20.02;;;19.93;;
66371;SDS011;53168;51.146;17.120;2024-02-14T09:11:40;22.21;;;21.82;;
66371;SDS011;53168;51.146;17.120;2024-02-14T09:14:18;21.85;;;21.74;;
66371;SDS011;53168;51.146;17.120;2024-02-14T09:16:57;22.48;;;22.10;;
66371;SDS011;53168;51.146;17.120;2024-02-14T09:19:34;21.44;;;21.06;;
66371;SDS011;53168;51.146;17.120;2024-02-14T09:22:08;20.75;;;20.50;;
66371;SDS011;53168;51.146;17.120;2024-02-14T09:24:49;20.38;;;20.24;;
66371;SDS011;53168;51.146;17.120;2024-02-14T09:27:26;19.84;;;19.68;;
66371;SDS011;53168;51.146;17.120;2024-02-14T09:30:03;19.49;;;19.27;;
66371;SDS011;53168;51.146;17.120;2024-02-14T09:32:54;20.05;;;19.85;;
66371;SDS011;53168;51.146;17.120;2024-02-14T09:35:30;19.12;;;18.97;;
66371;SDS011;53168;51.146;17.120;2024-02-14T09:38:07;19.50;;;19.27;;
66371;SDS011;53168;51.146;17.120;2024-02-14T09:40:43;18.79;;;18.63;;
66371;SDS011;53168;51.146;17.120;2024-02-14T09:43:20;19.11;;;19.01;;
66371;SDS011;53168;51.146;17.120;2024-02-14T09:46:06;19.25;;;18.97;;
66371;SDS011;53168;51.146;17.120;2024-02-14T09:48:45;18.23;;;17.95;;
66371;SDS011;53168;51.146;17.120;2024-02-14T09:51:23;19.24;;;19.08;;
66371;SDS011;53168;51.146;17.120;2024-02-14T09:54:00;16.95;;;16.86;;
66371;SDS011;53168;51.146;17.120;2024-02-14T09:56:37;16.62;;;16.53;;
66371;SDS011;53168;51.146;17.120;2024-02-14T09:59:12;15.55;;;15.35;;
66371;SDS011;53168;51.146;17.120;2024-02-14T10:01:51;13.63;;;13.44;;
66371;SDS011;53168;51.146;17.120;2024-02-14T10:04:27;14.96;;;14.80;;
66371;SDS011;53168;51.146;17.120;2024-02-14T10:07:03;14.76;;;14.66;;
66371;SDS011;53168;51.146;17.120;2024-02-14T10:09:43;14.02;;;13.92;;
66371;SDS011;53168;51.146;17.120;2024-02-14T10:12:18;13.34;;;13.20;;
66371;SDS011;53168;51.146;17.120;2024-02-14T10:14:53;12.36;;;12.24;;
66371;SDS011;53168;51.146;17.120;2024-02-14T10:17:32;11.34;;;11.31;;
66371;SDS011;53168;51.146;17.120;2024-02-14T10:20:16;11.00;;;10.94;;
66371;SDS011;53168;51.146;17.120;2024-02-14T10:22:59;12.14;;;12.12;;
66371;SDS011;53168;51.146;17.120;2024-02-14T10:25:35;11.48;;;11.38;;
66371;SDS011;53168;51.146;17.120;2024-02-14T10:28:10;11.16;;;11.07;;
66371;SDS011;53168;51.146;17.120;2024-02-14T10:30:48;13.05;;;12.95;;
66371;SDS011;53168;51.146;17.120;2024-02-14T10:33:27;14.39;;;14.28;;
66371;SDS011;53168;51.146;17.120;2024-02-14T10:36:02;12.32;;;12.29;;
66371;SDS011;53168;51.146;17.120;2024-02-14T10:38:43;12.94;;;12.93;;
66371;SDS011;53168;51.146;17.120;2024-02-14T10:41:23;11.39;;;11.35;;
66371;SDS011;53168;51.146;17.120;2024-02-14T10:44:05;9.73;;;9.72;;
66371;SDS011;53168;51.146;17.120;2024-02-14T10:59:10;8.97;;;8.96;;
66371;SDS011;53168;51.146;17.120;2024-02-14T11:01:54;10.62;;;10.52;;
66371;SDS011;53168;51.146;17.120;2024-02-14T11:04:31;8.44;;;8.44;;
66371;SDS011;53168;51.146;17.120;2024-02-14T11:07:10;8.16;;;8.16;;
66371;SDS011;53168;51.146;17.120;2024-02-14T11:16:02;8.39;;;7.85;;
66371;SDS011;53168;51.146;17.120;2024-02-14T11:18:38;6.86;;;6.74;;
66371;SDS011;53168;51.146;17.120;2024-02-14T11:21:16;7.89;;;7.85;;
66371;SDS011;53168;51.146;17.120;2024-02-14T11:35:28;7.35;;;7.35;;
66371;SDS011;53168;51.146;17.120;2024-02-14T11:38:07;7.63;;;7.63;;
66371;SDS011;53168;51.146;17.120;2024-02-14T11:40:43;7.67;;;7.66;;
66371;SDS011;53168;51.146;17.120;2024-02-14T11:43:26;6.24;;;6.24;;
66371;SDS011;53168;51.146;17.120;2024-02-14T11:46:03;7.07;;;7.07;;
66371;SDS011;53168;51.146;17.120;2024-02-14T11:48:41;6.28;;;6.27;;
66371;SDS011;53168;51.146;17.120;2024-02-14T11:51:18;6.20;;;6.20;;
66371;SDS011;53168;51.146;17.120;2024-02-14T11:53:54;6.69;;;6.68;;
66371;SDS011;53168;51.146;17.120;2024-02-14T11:56:53;7.03;;;7.03;;
66371;SDS011;53168;51.146;17.120;2024-02-14T11:59:34;7.40;;;7.39;;
66371;SDS011;53168;51.146;17.120;2024-02-14T12:05:54;7.55;;;7.55;;
66371;SDS011;53168;51.146;17.120;2024-02-14T12:09:57;6.90;;;6.89;;
66371;SDS011;53168;51.146;17.120;2024-02-14T12:12:33;6.63;;;6.62;;
66371;SDS011;53168;51.146;17.120;2024-02-14T12:15:16;6.41;;;6.41;;
66371;SDS011;53168;51.146;17.120;2024-02-14T12:17:52;6.78;;;6.78;;
66371;SDS011;53168;51.146;17.120;2024-02-14T12:20:29;6.57;;;6.57;;
66371;SDS011;53168;51.146;17.120;2024-02-14T12:23:05;8.72;;;8.72;;
66371;SDS011;53168;51.146;17.120;2024-02-14T12:25:47;7.90;;;7.90;;
66371;SDS011;53168;51.146;17.120;2024-02-14T12:28:22;7.25;;;7.25;;
66371;SDS011;53168;51.146;17.120;2024-02-14T12:31:00;7.03;;;6.97;;
66371;SDS011;53168;51.146;17.120;2024-02-14T12:33:35;7.63;;;7.61;;
66371;SDS011;53168;51.146;17.120;2024-02-14T12:36:11;8.70;;;8.64;;
66371;SDS011;53168;51.146;17.120;2024-02-14T12:38:47;7.81;;;7.75;;
66371;SDS011;53168;51.146;17.120;2024-02-14T12:41:23;7.47;;;7.45;;
66371;SDS011;53168;51.146;17.120;2024-02-14T12:43:59;7.08;;;7.04;;
66371;SDS011;53168;51.146;17.120;2024-02-14T12:46:35;7.03;;;7.00;;
66371;SDS011;53168;51.146;17.120;2024-02-14T12:49:10;6.63;;;6.59;;
66371;SDS011;53168;51.146;17.120;2024-02-14T12:51:47;5.53;;;5.51;;
66371;SDS011;53168;51.146;17.120;2024-02-14T12:54:22;5.43;;;5.43;;
66371;SDS011;53168;51.146;17.120;2024-02-14T12:56:57;4.99;;;4.96;;
66371;SDS011;53168;51.146;17.120;2024-02-14T12:59:33;4.78;;;4.76;;
66371;SDS011;53168;51.146;17.120;2024-02-14T13:02:07;4.88;;;4.88;;
66371;SDS011;53168;51.146;17.120;2024-02-14T13:04:42;4.48;;;4.47;;
66371;SDS011;53168;51.146;17.120;2024-02-14T13:07:19;4.37;;;4.37;;
66371;SDS011;53168;51.146;17.120;2024-02-14T13:09:55;4.33;;;4.33;;
66371;SDS011;53168;51.146;17.120;2024-02-14T13:12:32;4.19;;;4.19;;
66371;SDS011;53168;51.146;17.120;2024-02-14T13:15:07;4.30;;;4.29;;
66371;SDS011;53168;51.146;17.120;2024-02-14T13:17:45;4.44;;;4.44;;
66371;SDS011;53168;51.146;17.120;2024-02-14T13:20:22;3.90;;;3.90;;
66371;SDS011;53168;51.146;17.120;2024-02-14T13:22:59;4.87;;;4.85;;
66371;SDS011;53168;51.146;17.120;2024-02-14T13:25:35;4.76;;;4.74;;
66371;SDS011;53168;51.146;17.120;2024-02-14T13:28:10;4.52;;;4.51;;
66371;SDS011;53168;51.146;17.120;2024-02-14T13:30:45;4.13;;;4.11;;
66371;SDS011;53168;51.146;17.120;2024-02-14T13:33:25;4.23;;;4.21;;
66371;SDS011;53168;51.146;17.120;2024-02-14T13:36:01;4.40;;;4.39;;
66371;SDS011;53168;51.146;17.120;2024-02-14T13:38:38;4.04;;;4.02;;
66371;SDS011;53168;51.146;17.120;2024-02-14T13:41:14;4.66;;;4.60;;
66371;SDS011;53168;51.146;17.120;2024-02-14T13:43:49;3.82;;;3.79;;
66371;SDS011;53168;51.146;17.120;2024-02-14T13:46:23;3.81;;;3.81;;
66371;SDS011;53168;51.146;17.120;2024-02-14T13:48:59;3.97;;;3.97;;
66371;SDS011;53168;51.146;17.120;2024-02-14T13:51:48;4.25;;;4.25;;
66371;SDS011;53168;51.146;17.120;2024-02-14T13:54:23;3.95;;;3.95;;
66371;SDS011;53168;51.146;17.120;2024-02-14T13:56:58;5.01;;;5.01;;
66371;SDS011;53168;51.146;17.120;2024-02-14T13:59:33;4.49;;;4.49;;
66371;SDS011;53168;51.146;17.120;2024-02-14T14:02:08;3.84;;;3.84;;
66371;SDS011;53168;51.146;17.120;2024-02-14T14:04:43;3.71;;;3.69;;
66371;SDS011;53168;51.146;17.120;2024-02-14T14:07:20;3.93;;;3.93;;
66371;SDS011;53168;51.146;17.120;2024-02-14T14:09:55;4.44;;;4.44;;
66371;SDS011;53168;51.146;17.120;2024-02-14T14:12:30;4.51;;;4.50;;
66371;SDS011;53168;51.146;17.120;2024-02-14T14:15:06;4.22;;;4.22;;
66371;SDS011;53168;51.146;17.120;2024-02-14T14:17:47;4.01;;;3.98;;
66371;SDS011;53168;51.146;17.120;2024-02-14T14:20:23;4.39;;;4.37;;
66371;SDS011;53168;51.146;17.120;2024-02-14T14:23:01;4.91;;;4.90;;
66371;SDS011;53168;51.146;17.120;2024-02-14T14:25:41;5.22;;;5.22;;
66371;SDS011;53168;51.146;17.120;2024-02-14T14:28:17;4.95;;;4.94;;
66371;SDS011;53168;51.146;17.120;2024-02-14T14:30:54;5.42;;;5.34;;
66371;SDS011;53168;51.146;17.120;2024-02-14T14:33:36;4.95;;;4.91;;
66371;SDS011;53168;51.146;17.120;2024-02-14T14:36:13;5.34;;;5.27;;
66371;SDS011;53168;51.146;17.120;2024-02-14T14:38:50;5.76;;;5.69;;
66371;SDS011;53168;51.146;17.120;2024-02-14T14:41:27;5.39;;;5.38;;
66371;SDS011;53168;51.146;17.120;2024-02-14T14:44:16;5.77;;;5.76;;
66371;SDS011;53168;51.146;17.120;2024-02-14T14:47:07;5.89;;;5.89;;
66371;SDS011;53168;51.146;17.120;2024-02-14T14:49:46;6.23;;;6.20;;
66371;SDS011;53168;51.146;17.120;2024-02-14T14:52:25;5.83;;;5.81;;
66371;SDS011;53168;51.146;17.120;2024-02-14T14:55:03;5.41;;;5.40;;
66371;SDS011;53168;51.146;17.120;2024-02-14T14:57:45;4.80;;;4.80;;
66371;SDS011;53168;51.146;17.120;2024-02-14T15:00:33;5.16;;;5.15;;
66371;SDS011;53168;51.146;17.120;2024-02-14T15:03:13;7.33;;;7.25;;
66371;SDS011;53168;51.146;17.120;2024-02-14T15:05:49;5.37;;;5.26;;
66371;SDS011;53168;51.146;17.120;2024-02-14T15:08:28;5.75;;;5.64;;
66371;SDS011;53168;51.146;17.120;2024-02-14T15:11:08;5.90;;;5.89;;
66371;SDS011;53168;51.146;17.120;2024-02-14T15:13:53;6.22;;;6.22;;
66371;SDS011;53168;51.146;17.120;2024-02-14T15:16:33;6.51;;;6.46;;
66371;SDS011;53168;51.146;17.120;2024-02-14T15:19:10;6.82;;;6.73;;
66371;SDS011;53168;51.146;17.120;2024-02-14T15:21:46;5.43;;;5.34;;
66371;SDS011;53168;51.146;17.120;2024-02-14T15:24:24;6.23;;;6.13;;
66371;SDS011;53168;51.146;17.120;2024-02-14T15:27:06;6.71;;;6.67;;
66371;SDS011;53168;51.146;17.120;2024-02-14T15:29:44;5.99;;;5.96;;
66371;SDS011;53168;51.146;17.120;2024-02-14T15:46:11;9.80;;;9.28;;
66371;SDS011;53168;51.146;17.120;2024-02-14T15:48:48;7.84;;;7.79;;
66371;SDS011;53168;51.146;17.120;2024-02-14T15:51:25;9.12;;;9.12;;
66371;SDS011;53168;51.146;17.120;2024-02-14T15:54:00;8.77;;;8.77;;
66371;SDS011;53168;51.146;17.120;2024-02-14T15:56:38;8.90;;;8.88;;
66371;SDS011;53168;51.146;17.120;2024-02-14T15:59:13;8.76;;;8.66;;
66371;SDS011;53168;51.146;17.120;2024-02-14T16:01:48;9.21;;;9.09;;
66371;SDS011;53168;51.146;17.120;2024-02-14T16:04:23;8.72;;;8.57;;